Lanzarote, Spain
Current Conditions -  °F | °C
As of 9:30 AM on Monday 22 Dec 2014 (Local Time) from GCRR Reporting Station
Few Clouds Few Clouds  
Wind Chill: 66°   Ceiling: Unl
Heat Index: 66°   Visibility: 6mi
Dew Point: 61°   Wind: 17mph
Humidity: 83%   Direction: 70°ENE
Pressure: 30.24"   Gusts: NA
Location:  28.95°N, 13.6°W
Report Text: GCRR 220930Z 07015KT 9999 FEW016 19/16 Q1024
Loading
Personal Weather Stations






























Interactive Weather Map New forecast layout! Learn more

10-Day Weather Forecast

Advertisements
Track Severe Weather on mobile